Archival Weather

NSFA McMurdo Sound

NSFA McMurdo Sound, Antarctica (NZCM)

Report from: Friday, September 23, 2022 11:01 AM UTC
Current time: Sunday, December 4, 2022 1:09 PM UTC

Current weather
Weather history
Weather forecast

Present weatherLight snow, mist
Temperature-21.6°C (-6.9°F)
Wind chill-36.3°C (-33.4°F)
Dew point-25.7°C (-14.3°F)
Winds 22 kts (11.3 m/s, 25.3 mph) East-Northeast (70°)
Wind gusts 28 kts (14.4 m/s, 32.2 mph)
Peak wind 28 kts (14.4 m/s, 32.2 mph) East-Northeast (70°) at 05:58
Visibility2.5 mi. (4 km)
Clouds Ceiling: Overcast 1,600 ft. (488 m)
Altimeter28.64 in.Hg (970 mB)
Precip. events Snow began 11:01 AM
Relative humidity69 %
Density altitude-3,152 ft. (-961 m)
Sea-level pressure107.1 kPa (1071 mB, 31.61 in.Hg)
Remarks Fully automated report
System requires maintenance
Special weather observation
Automated weather observing station with precipitation discriminator
Flight conditions Instrument Meteorological Conditions
Raw dataSPECI NZCM 231101Z AUTO 07022G28KT 4000 -SN BR OVC016 M22/M26 A2864 RMK AO2 PK WND 07028/1058 SNB1101 SLP705 T12161257 $
An error has occurred. This application may no longer respond until reloaded. Reload 🗙